createdAt,value
2022-12-23T00:00:40.286Z,100.00
2022-12-23T00:05:41.931Z,100.00
2022-12-23T00:10:43.926Z,100.00
2022-12-23T00:15:45.528Z,100.00
2022-12-23T00:20:47.140Z,100.00
2022-12-23T00:25:48.767Z,100.00
2022-12-23T00:30:55.374Z,100.00
2022-12-23T00:35:57.261Z,100.00
2022-12-23T00:41:17.396Z,100.00
2022-12-23T00:46:19.147Z,100.00
2022-12-23T00:51:20.786Z,100.00
2022-12-23T00:56:22.410Z,100.00
2022-12-23T01:01:42.596Z,100.00
2022-12-23T01:06:44.287Z,100.00
2022-12-23T01:11:45.890Z,100.00
2022-12-23T01:16:47.920Z,100.00
2022-12-23T01:21:49.583Z,100.00
2022-12-23T01:26:51.184Z,100.00
2022-12-23T01:31:52.950Z,100.00
2022-12-23T01:36:54.625Z,99.61
2022-12-23T01:42:14.761Z,98.18
2022-12-23T01:47:31.881Z,97.81
2022-12-23T01:52:40.420Z,97.62
2022-12-23T01:57:43.746Z,97.17
2022-12-23T02:03:08.416Z,97.29
2022-12-23T02:08:28.819Z,97.54
2022-12-23T02:14:23.340Z,98.27
2022-12-23T02:19:39.943Z,98.84
2022-12-23T02:25:04.905Z,99.73
2022-12-23T02:30:40.090Z,98.87
2022-12-23T02:36:17.604Z,99.19
2022-12-23T02:41:35.328Z,99.21
2022-12-23T02:46:46.264Z,99.05
2022-12-23T02:51:53.695Z,98.86
2022-12-23T02:56:57.808Z,99.29
2022-12-23T03:02:01.018Z,99.90
2022-12-23T03:07:07.482Z,100.00
2022-12-23T03:12:28.618Z,98.84
2022-12-23T03:17:42.361Z,98.86
2022-12-23T03:22:57.125Z,99.73
2022-12-23T03:28:19.385Z,99.25
2022-12-23T03:33:31.791Z,98.74
2022-12-23T03:38:37.869Z,98.42
2022-12-23T03:43:50.954Z,97.79
2022-12-23T03:48:58.189Z,98.22
2022-12-23T03:54:03.448Z,98.39
2022-12-23T03:59:28.316Z,99.67
2022-12-23T04:05:03.310Z,100.00
2022-12-23T04:10:05.832Z,99.93
2022-12-23T04:15:12.861Z,99.66
2022-12-23T04:20:15.387Z,98.53
2022-12-23T04:25:17.545Z,98.88
2022-12-23T04:30:19.279Z,98.49
2022-12-23T04:35:21.312Z,98.38
2022-12-23T04:40:23.004Z,98.38
2022-12-23T04:45:24.616Z,98.85
2022-12-23T04:50:26.262Z,99.18
2022-12-23T04:55:27.862Z,99.51
2022-12-23T05:00:34.007Z,99.05
2022-12-23T05:05:43.988Z,98.86
2022-12-23T05:10:45.697Z,98.63
2022-12-23T05:15:51.349Z,98.63
2022-12-23T05:20:53.062Z,98.42
2022-12-23T05:25:54.928Z,97.78
2022-12-23T05:31:06.910Z,97.47
2022-12-23T05:36:09.733Z,97.67
2022-12-23T05:41:11.483Z,97.08
2022-12-23T05:46:13.113Z,97.55
2022-12-23T05:51:14.757Z,96.41
2022-12-23T05:56:16.374Z,96.10
2022-12-23T06:01:17.972Z,95.35
2022-12-23T06:06:19.590Z,95.80
2022-12-23T06:11:21.391Z,95.25
2022-12-23T06:16:23.217Z,94.91
2022-12-23T06:21:27.677Z,95.44
2022-12-23T06:26:29.344Z,95.38
2022-12-23T06:31:30.948Z,95.71
2022-12-23T06:36:32.596Z,96.29
2022-12-23T06:41:34.214Z,96.08
2022-12-23T06:46:35.893Z,96.75
2022-12-23T06:51:37.504Z,99.11
2022-12-23T06:56:39.387Z,100.00
2022-12-23T07:01:41.168Z,100.00
2022-12-23T07:06:42.827Z,100.00
2022-12-23T07:11:44.448Z,100.00
2022-12-23T07:16:46.409Z,100.00
2022-12-23T07:21:48.092Z,100.00
2022-12-23T07:26:50.672Z,100.00
2022-12-23T07:31:53.225Z,100.00
2022-12-23T07:36:55.949Z,100.00
2022-12-23T07:42:24.915Z,100.00
2022-12-23T07:47:19.169Z,100.00
2022-12-23T07:52:20.797Z,100.00
2022-12-23T07:57:22.547Z,100.00
2022-12-23T08:02:25.427Z,100.00
2022-12-23T08:07:27.457Z,100.00
2022-12-23T08:12:29.073Z,100.00
2022-12-23T08:17:30.884Z,100.00
2022-12-23T08:22:32.678Z,100.00
2022-12-23T08:27:35.797Z,100.00
2022-12-23T08:32:37.412Z,100.00
2022-12-23T08:37:39.041Z,100.00
2022-12-23T08:42:40.700Z,100.00
2022-12-23T08:47:42.348Z,100.00
2022-12-23T08:52:44.020Z,100.00
2022-12-23T08:57:45.628Z,100.00
2022-12-23T09:02:47.574Z,100.00
2022-12-23T09:07:49.441Z,100.00
2022-12-23T09:12:51.266Z,100.00
2022-12-23T09:17:52.894Z,100.00
2022-12-23T09:22:54.507Z,99.99
2022-12-23T09:27:56.251Z,98.86
2022-12-23T09:32:57.863Z,97.84
2022-12-23T09:37:59.447Z,97.21
2022-12-23T09:43:28.309Z,96.32
2022-12-23T09:48:35.381Z,96.21
2022-12-23T09:54:01.738Z,95.26
2022-12-23T09:59:14.607Z,94.57
2022-12-23T10:04:28.718Z,93.99
2022-12-23T10:09:38.863Z,93.39
2022-12-23T10:14:41.379Z,92.64
2022-12-23T10:19:48.386Z,92.72
2022-12-23T10:24:50.640Z,92.31
2022-12-23T10:29:52.381Z,92.42
2022-12-23T10:35:15.643Z,92.99
2022-12-23T10:40:45.454Z,92.21
2022-12-23T10:45:56.197Z,92.20
2022-12-23T10:51:03.923Z,92.22
2022-12-23T10:56:07.468Z,92.01
2022-12-23T11:01:18.622Z,91.42
2022-12-23T11:06:30.236Z,91.86
2022-12-23T11:12:00.523Z,92.07
2022-12-23T11:17:03.207Z,91.88
2022-12-23T11:22:04.832Z,92.00
2022-12-23T11:27:11.746Z,91.84
2022-12-23T11:32:26.407Z,89.75
2022-12-23T11:37:36.725Z,88.46
2022-12-23T11:42:41.547Z,88.14
2022-12-23T11:47:43.796Z,87.66
2022-12-23T11:52:51.885Z,87.52
2022-12-23T11:57:54.157Z,87.07
2022-12-23T12:03:00.181Z,87.29
2022-12-23T12:08:07.120Z,87.68
2022-12-23T12:13:26.025Z,87.57
2022-12-23T12:18:28.389Z,87.66
2022-12-23T12:23:45.325Z,86.72
2022-12-23T12:28:53.482Z,86.82
2022-12-23T12:34:12.977Z,87.74
2022-12-23T12:39:31.046Z,87.88
2022-12-23T12:45:12.323Z,88.60
2022-12-23T12:50:18.323Z,88.20
2022-12-23T12:55:26.165Z,88.60
2022-12-23T13:00:28.601Z,88.42
2022-12-23T13:05:36.255Z,88.94
2022-12-23T13:10:50.110Z,88.36
2022-12-23T13:16:26.322Z,88.63
2022-12-23T13:21:48.429Z,88.95
2022-12-23T13:26:57.034Z,89.08
2022-12-23T13:32:15.117Z,88.63
2022-12-23T13:37:17.089Z,88.40
2022-12-23T13:42:34.368Z,88.76
2022-12-23T13:48:11.840Z,88.83
2022-12-23T13:53:26.805Z,88.15
2022-12-23T13:58:31.342Z,88.22
2022-12-23T14:03:35.725Z,87.70
2022-12-23T14:08:42.848Z,88.26
2022-12-23T14:13:58.349Z,88.30
2022-12-23T14:19:36.019Z,88.71
2022-12-23T14:25:02.244Z,88.98
2022-12-23T14:30:16.543Z,88.57
2022-12-23T14:35:26.763Z,88.53
2022-12-23T14:40:37.365Z,89.40
2022-12-23T14:45:43.387Z,89.92
2022-12-23T14:50:57.688Z,90.74
2022-12-23T14:56:11.564Z,91.25
2022-12-23T15:01:42.747Z,91.51
2022-12-23T15:06:47.909Z,92.05
2022-12-23T15:11:50.245Z,92.37
2022-12-23T15:16:51.924Z,92.12
2022-12-23T15:22:19.863Z,92.55
2022-12-23T15:27:28.699Z,92.80
2022-12-23T15:32:31.618Z,93.06
2022-12-23T15:37:33.907Z,92.99
2022-12-23T15:42:37.056Z,93.75
2022-12-23T15:47:39.473Z,93.60
2022-12-23T15:52:43.094Z,93.34
2022-12-23T15:57:50.423Z,93.06
2022-12-23T16:03:03.371Z,94.10
2022-12-23T16:08:16.399Z,93.73
2022-12-23T16:13:20.163Z,92.99
2022-12-23T16:18:28.562Z,93.36
2022-12-23T16:23:35.117Z,94.54
2022-12-23T16:28:43.120Z,94.08
2022-12-23T16:33:47.513Z,94.21
2022-12-23T16:38:51.416Z,96.00
2022-12-23T16:43:53.332Z,96.67
2022-12-23T16:49:00.872Z,96.44
2022-12-23T16:54:02.537Z,97.04
2022-12-23T16:59:04.867Z,98.50
2022-12-23T17:04:07.223Z,99.18
2022-12-23T17:09:10.463Z,100.00
2022-12-23T17:14:24.295Z,99.54
2022-12-23T17:19:29.055Z,100.00
2022-12-23T17:24:31.514Z,100.00
2022-12-23T17:29:33.352Z,100.00
2022-12-23T17:34:35.021Z,100.00
2022-12-23T17:39:36.661Z,100.00
2022-12-23T17:44:38.263Z,100.00
2022-12-23T17:49:40.141Z,100.00
2022-12-23T17:54:42.094Z,100.00
2022-12-23T17:59:47.726Z,100.00
2022-12-23T18:04:50.171Z,100.00
2022-12-23T18:09:52.872Z,100.00
2022-12-23T18:14:55.549Z,100.00
2022-12-23T18:19:57.254Z,100.00
2022-12-23T18:24:59.652Z,100.00
2022-12-23T18:30:01.364Z,100.00
2022-12-23T18:35:03.143Z,100.00
2022-12-23T18:40:06.936Z,100.00
2022-12-23T18:45:23.532Z,100.00
2022-12-23T18:50:26.439Z,100.00
2022-12-23T18:55:30.394Z,100.00
2022-12-23T19:00:33.636Z,100.00
2022-12-23T19:05:35.234Z,100.00
2022-12-23T19:10:36.835Z,100.00
2022-12-23T19:15:40.525Z,100.00
2022-12-23T19:20:43.670Z,100.00
2022-12-23T19:25:52.449Z,100.00
2022-12-23T19:30:56.401Z,100.00
2022-12-23T19:35:58.116Z,100.00
2022-12-23T19:40:59.759Z,100.00
2022-12-23T19:46:04.035Z,100.00
2022-12-23T19:51:08.997Z,100.00
2022-12-23T19:56:15.804Z,100.00
2022-12-23T20:01:20.082Z,100.00
2022-12-23T20:06:27.618Z,100.00
2022-12-23T20:11:32.631Z,100.00
2022-12-23T20:16:35.778Z,100.00
2022-12-23T20:21:37.815Z,100.00
2022-12-23T20:26:39.544Z,100.00
2022-12-23T20:31:41.789Z,100.00
2022-12-23T20:36:43.712Z,100.00
2022-12-23T20:41:45.477Z,100.00
2022-12-23T20:46:47.184Z,100.00
2022-12-23T20:51:48.879Z,100.00
2022-12-23T20:56:50.489Z,100.00
2022-12-23T21:01:52.269Z,100.00
2022-12-23T21:06:54.005Z,100.00
2022-12-23T21:11:55.727Z,100.00
2022-12-23T21:16:57.403Z,100.00
2022-12-23T21:21:59.036Z,100.00
2022-12-23T21:27:00.665Z,100.00
2022-12-23T21:32:02.312Z,100.00
2022-12-23T21:37:04.090Z,100.00
2022-12-23T21:42:06.503Z,100.00
2022-12-23T21:47:08.180Z,100.00
2022-12-23T21:52:10.221Z,100.00
2022-12-23T21:57:11.864Z,100.00
2022-12-23T22:02:16.733Z,100.00
2022-12-23T22:07:18.431Z,100.00
2022-12-23T22:12:20.053Z,100.00
2022-12-23T22:17:21.702Z,100.00
2022-12-23T22:22:23.337Z,100.00
2022-12-23T22:27:24.941Z,100.00
2022-12-23T22:32:26.563Z,100.00
2022-12-23T22:37:28.166Z,100.00
2022-12-23T22:42:29.842Z,100.00
2022-12-23T22:47:32.041Z,100.00
2022-12-23T22:52:33.660Z,100.00
2022-12-23T22:57:35.350Z,100.00
2022-12-23T23:02:36.973Z,100.00
2022-12-23T23:07:38.876Z,100.00
2022-12-23T23:12:41.129Z,100.00
2022-12-23T23:17:42.757Z,100.00
2022-12-23T23:22:44.661Z,100.00
2022-12-23T23:27:46.327Z,100.00
2022-12-23T23:32:48.036Z,100.00
2022-12-23T23:37:49.756Z,100.00
2022-12-23T23:42:51.407Z,100.00
2022-12-23T23:47:54.765Z,100.00
2022-12-23T23:52:56.373Z,100.00
2022-12-23T23:57:58.103Z,100.00
